Time;durP1;ratioP1;P1;durP2;ratioP2;P2;SDS_P1;SDS_P2;PMS_P1;PMS_P2;Temp;Humidity;BMP_temperature;BMP_pressure;BME280_temperature;BME280_humidity;BME280_pressure;Samples;Min_cycle;Max_cycle;Signal;HPM_P1;HPM_P2
2022/12/31 00:00:20;;;;;;;;;;;;;;;7.19;69.41;100198.84;4332210;33;34320;-68
2022/12/31 00:02:48;;;;;;;;;;;;;;;6.90;71.60;100198.59;4327711;33;34944;-68
2022/12/31 00:05:15;;;;;;;;;;;;;;;8.33;66.24;100186.22;4327079;33;34323;-69
2022/12/31 00:07:42;;;;;;;;;;;;;;;7.47;69.75;100195.56;4353321;32;31995;-69
2022/12/31 00:10:10;;;;;;;;;;;;;;;6.74;71.91;100197.66;4332181;33;32453;-66
2022/12/31 00:12:37;;;;;;;;;;;;;;;7.29;70.55;100188.56;4332409;33;34279;-66
2022/12/31 00:15:04;;;;;;;;;;;;;;;6.87;71.92;100196.09;4335773;33;34296;-65
2022/12/31 00:17:33;;;;;;;;;;;;;;;6.34;74.41;100199.69;4355678;32;33045;-66
2022/12/31 00:20:00;;;;;;;;;;;;;;;6.96;72.18;100208.91;4330763;33;34830;-68
2022/12/31 00:22:27;;;;;;;;;;;;;;;7.55;68.95;100212.00;4332831;33;34485;-68
2022/12/31 00:24:55;;;;;;;;;;;;;;;7.70;68.03;100221.81;4337152;33;34470;-66
2022/12/31 00:27:22;;;;;;;;;;;;;;;6.87;71.44;100227.16;4335249;33;33340;-64
2022/12/31 00:29:49;;;;;;;;;;;;;;;6.69;72.29;100224.50;4332875;33;34098;-65
2022/12/31 00:32:17;;;;;;;;;;;;;;;7.22;70.61;100218.19;4333041;33;34478;-65
2022/12/31 00:34:44;;;;;;;;;;;;;;;7.07;70.15;100224.34;4346003;32;35446;-71
2022/12/31 00:37:11;;;;;;;;;;;;;;;6.52;72.86;100229.84;4336883;32;33415;-69
2022/12/31 00:39:39;;;;;;;;;;;;;;;7.67;69.04;100232.63;4348533;32;34333;-66
2022/12/31 00:42:06;;;;;;;;;;;;;;;7.99;67.83;100229.09;4345295;32;33948;-66
2022/12/31 00:44:33;;;;;;;;;;;;;;;8.50;65.73;100221.75;4355188;32;34452;-70
2022/12/31 00:47:00;;;;;;;;;;;;;;;8.59;65.08;100221.22;4342495;32;34560;-72
2022/12/31 00:49:28;;;;;;;;;;;;;;;8.00;67.31;100226.34;4342809;32;33957;-66
2022/12/31 00:51:55;;;;;;;;;;;;;;;8.15;66.40;100236.16;4343592;32;34163;-67
2022/12/31 00:54:22;;;;;;;;;;;;;;;8.01;66.87;100233.41;4346962;32;34509;-70
2022/12/31 00:56:50;;;;;;;;;;;;;;;7.51;68.50;100258.34;4343343;32;33730;-65
2022/12/31 00:59:17;;;;;;;;;;;;;;;8.42;65.26;100246.22;4345891;32;35453;-67
2022/12/31 01:01:44;;;;;;;;;;;;;;;7.99;67.46;100240.63;4346731;32;32924;-66
2022/12/31 01:04:13;;;;;;;;;;;;;;;7.65;67.98;100244.31;4344503;32;34185;-68
2022/12/31 01:06:40;;;;;;;;;;;;;;;7.57;68.78;100249.19;4343848;32;31891;-68
2022/12/31 01:09:08;;;;;;;;;;;;;;;7.50;68.50;100248.66;4347165;32;33800;-67
2022/12/31 01:11:36;;;;;;;;;;;;;;;8.09;66.47;100241.84;4349048;32;33047;-68
2022/12/31 01:14:05;;;;;;;;;;;;;;;6.84;71.17;100230.84;4342329;32;35089;-71
2022/12/31 01:16:33;;;;;;;;;;;;;;;7.50;69.08;100238.00;4339265;32;33716;-69
2022/12/31 01:19:02;;;;;;;;;;;;;;;7.92;67.63;100239.25;4345876;32;33860;-68
2022/12/31 01:21:30;;;;;;;;;;;;;;;7.24;69.67;100250.06;4340619;32;34319;-70
2022/12/31 01:23:57;;;;;;;;;;;;;;;8.02;67.47;100253.78;4339449;32;34135;-68
2022/12/31 01:26:25;;;;;;;;;;;;;;;7.92;67.41;100256.09;4342751;32;33602;-67
2022/12/31 01:28:52;;;;;;;;;;;;;;;8.32;65.71;100248.53;4341928;33;33953;-68
2022/12/31 01:31:20;;;;;;;;;;;;;;;8.68;64.77;100250.03;4341287;32;32796;-69
2022/12/31 01:33:47;;;;;;;;;;;;;;;8.32;66.06;100251.19;4342815;32;35034;-67
2022/12/31 01:36:16;;;;;;;;;;;;;;;8.25;66.09;100257.81;4343279;32;33832;-70
2022/12/31 01:38:52;;;;;;;;;;;;;;;8.27;66.32;100261.25;4353166;32;34595;-70
2022/12/31 01:41:21;;;;;;;;;;;;;;;8.74;63.86;100255.00;4356533;32;34457;-70
2022/12/31 01:43:49;;;;;;;;;;;;;;;7.55;67.54;100261.75;4356669;32;35398;-70
2022/12/31 01:46:23;;;;;;;;;;;;;;;8.57;65.02;100256.00;4355952;32;33130;-70
2022/12/31 01:48:51;;;;;;;;;;;;;;;8.77;64.40;100249.50;4356660;32;33906;-69
2022/12/31 01:51:19;;;;;;;;;;;;;;;7.81;66.50;100260.31;4356147;32;34570;-70
2022/12/31 01:53:46;;;;;;;;;;;;;;;8.57;65.48;100257.78;4336178;32;32704;-69
2022/12/31 01:56:13;;;;;;;;;;;;;;;8.54;65.10;100256.19;4341345;32;33551;-72
2022/12/31 01:58:45;;;;;;;;;;;;;;;9.19;62.51;100247.00;4356674;32;34099;-71
2022/12/31 02:01:13;;;;;;;;;;;;;;;8.73;63.99;100236.41;4356782;32;33924;-68
2022/12/31 02:03:40;;;;;;;;;;;;;;;8.72;64.08;100248.03;4343768;32;34694;-68
2022/12/31 02:06:08;;;;;;;;;;;;;;;8.33;65.53;100254.72;4341564;32;33050;-74
2022/12/31 02:08:35;;;;;;;;;;;;;;;9.02;62.90;100256.91;4355345;32;35643;-70
2022/12/31 02:11:25;;;;;;;;;;;;;;;8.48;64.18;100261.03;4355233;32;33805;-70
2022/12/31 02:13:53;;;;;;;;;;;;;;;8.90;63.04;100256.78;4355802;32;35627;-65
2022/12/31 02:16:24;;;;;;;;;;;;;;;8.82;63.84;100259.88;4339376;32;33651;-67
2022/12/31 02:18:55;;;;;;;;;;;;;;;8.85;63.26;100263.22;4358174;32;34014;-70
2022/12/31 02:21:25;;;;;;;;;;;;;;;8.93;63.08;100267.28;4357876;32;33366;-68
2022/12/31 02:23:57;;;;;;;;;;;;;;;9.20;63.05;100265.59;4358333;32;34021;-66
2022/12/31 02:26:41;;;;;;;;;;;;;;;8.74;64.29;100273.69;4344199;32;32590;-68
2022/12/31 02:29:21;;;;;;;;;;;;;;;8.88;63.40;100256.00;4347567;32;35329;-66
2022/12/31 02:31:49;;;;;;;;;;;;;;;8.62;64.60;100253.91;4359409;32;34165;-68
2022/12/31 02:34:17;;;;;;;;;;;;;;;8.36;66.10;100266.06;4346043;32;34231;-68
2022/12/31 02:36:45;;;;;;;;;;;;;;;8.19;66.38;100263.50;4359532;32;33365;-66
2022/12/31 02:39:12;;;;;;;;;;;;;;;8.52;65.10;100262.56;4345674;32;34126;-66
2022/12/31 02:41:48;;;;;;;;;;;;;;;9.05;62.71;100278.06;4356948;32;34478;-67
2022/12/31 02:44:25;;;;;;;;;;;;;;;8.50;64.85;100275.97;4356362;32;34464;-66
2022/12/31 02:47:02;;;;;;;;;;;;;;;8.00;66.44;100277.00;4347546;32;35278;-71
2022/12/31 02:49:38;;;;;;;;;;;;;;;8.46;65.53;100269.09;4359903;32;32887;-66
2022/12/31 02:52:24;;;;;;;;;;;;;;;8.77;63.89;100268.19;4354679;32;35407;-67
2022/12/31 02:55:00;;;;;;;;;;;;;;;9.06;62.94;100261.09;4358641;32;36686;-65
2022/12/31 02:57:29;;;;;;;;;;;;;;;9.14;62.48;100257.94;4358001;32;34066;-66
2022/12/31 03:02:44;;;;;;;;;;;;;;;8.61;64.51;100254.00;4353913;32;35483;-68
2022/12/31 03:05:12;;;;;;;;;;;;;;;8.73;64.29;100249.75;4352797;32;34605;-66
2022/12/31 03:07:40;;;;;;;;;;;;;;;9.40;62.01;100244.81;4355353;32;34549;-66
2022/12/31 03:10:07;;;;;;;;;;;;;;;9.51;61.50;100245.88;4355026;32;32775;-67
2022/12/31 03:12:47;;;;;;;;;;;;;;;9.69;60.74;100265.22;4358503;32;34233;-65
2022/12/31 03:15:19;;;;;;;;;;;;;;;9.05;62.86;100256.72;4357038;32;35163;-66
2022/12/31 03:17:59;;;;;;;;;;;;;;;8.80;63.72;100235.97;4354949;32;33589;-65
2022/12/31 03:23:16;;;;;;;;;;;;;;;9.62;60.71;100244.34;4351310;32;32991;-66
2022/12/31 03:25:44;;;;;;;;;;;;;;;9.33;61.86;100242.50;4356037;32;35244;-65
2022/12/31 03:28:12;;;;;;;;;;;;;;;9.27;62.39;100239.38;4359423;32;32241;-66
2022/12/31 03:30:41;;;;;;;;;;;;;;;9.05;62.84;100245.16;4360111;32;34161;-65
2022/12/31 03:33:09;;;;;;;;;;;;;;;9.00;62.63;100242.78;4357932;32;34345;-65
2022/12/31 03:35:36;;;;;;;;;;;;;;;9.13;62.42;100239.38;4358898;32;34679;-70
2022/12/31 03:38:03;;;;;;;;;;;;;;;9.37;61.28;100234.31;4358773;32;32357;-65
2022/12/31 03:40:33;;;;;;;;;;;;;;;9.45;61.25;100240.06;4360487;32;34910;-68
2022/12/31 03:43:00;;;;;;;;;;;;;;;8.91;63.21;100255.81;4358220;32;34375;-68
2022/12/31 03:45:27;;;;;;;;;;;;;;;9.09;62.82;100249.38;4359289;32;34314;-72
2022/12/31 03:47:55;;;;;;;;;;;;;;;9.18;62.51;100245.25;4356685;32;34265;-67
2022/12/31 03:50:23;;;;;;;;;;;;;;;7.94;65.67;100242.69;4360339;32;33689;-70
2022/12/31 03:52:50;;;;;;;;;;;;;;;8.04;67.02;100246.56;4356974;32;34253;-66
2022/12/31 03:55:18;;;;;;;;;;;;;;;8.93;64.10;100248.59;4358424;32;34146;-67
2022/12/31 03:57:45;;;;;;;;;;;;;;;8.84;63.52;100252.66;4357762;32;32532;-66
2022/12/31 04:00:13;;;;;;;;;;;;;;;9.08;63.17;100247.63;4356594;32;34199;-68
2022/12/31 04:02:41;;;;;;;;;;;;;;;9.15;62.71;100243.66;4355302;32;34296;-67
2022/12/31 04:05:08;;;;;;;;;;;;;;;8.99;63.35;100238.41;4355290;32;34200;-67
2022/12/31 04:07:36;;;;;;;;;;;;;;;9.09;62.82;100231.53;4353853;32;34501;-68
2022/12/31 04:10:04;;;;;;;;;;;;;;;9.71;60.84;100238.41;4356789;32;33817;-68
2022/12/31 04:12:31;;;;;;;;;;;;;;;9.51;61.19;100231.66;4350572;32;34688;-69
2022/12/31 04:14:58;;;;;;;;;;;;;;;8.41;65.44;100233.84;4356874;32;34213;-70
2022/12/31 04:17:26;;;;;;;;;;;;;;;8.56;63.97;100234.72;4350621;32;32353;-74
2022/12/31 04:19:53;;;;;;;;;;;;;;;7.68;67.53;100244.13;4340925;32;35999;-71
2022/12/31 04:22:20;;;;;;;;;;;;;;;9.21;62.81;100245.97;4361567;32;32973;-70
2022/12/31 04:24:48;;;;;;;;;;;;;;;8.59;64.14;100262.09;4360887;32;35236;-71
2022/12/31 04:27:16;;;;;;;;;;;;;;;9.41;62.02;100266.09;4359524;32;33460;-70
2022/12/31 04:29:43;;;;;;;;;;;;;;;9.51;61.73;100261.91;4356512;32;34250;-71
2022/12/31 04:32:10;;;;;;;;;;;;;;;9.85;60.13;100270.47;4359136;32;35231;-69
2022/12/31 04:34:38;;;;;;;;;;;;;;;9.59;60.91;100273.91;4358020;32;34502;-70
2022/12/31 04:37:06;;;;;;;;;;;;;;;9.68;60.79;100276.88;4359281;32;33700;-72
2022/12/31 04:39:33;;;;;;;;;;;;;;;9.24;62.02;100266.25;4360503;32;35463;-70
2022/12/31 04:42:01;;;;;;;;;;;;;;;9.26;62.13;100264.37;4359689;32;34280;-70
2022/12/31 04:44:28;;;;;;;;;;;;;;;10.11;59.63;100276.84;4358828;32;34542;-71
2022/12/31 04:46:55;;;;;;;;;;;;;;;9.85;60.38;100286.50;4358218;32;32201;-69
2022/12/31 04:49:23;;;;;;;;;;;;;;;9.97;60.08;100283.06;4359191;32;34809;-72
2022/12/31 04:51:50;;;;;;;;;;;;;;;9.92;60.42;100281.63;4358927;32;34898;-69
2022/12/31 04:54:17;;;;;;;;;;;;;;;10.13;59.69;100282.94;4357972;32;35311;-73
2022/12/31 04:56:45;;;;;;;;;;;;;;;10.11;59.58;100287.53;4356531;32;33768;-69
2022/12/31 04:59:12;;;;;;;;;;;;;;;10.23;59.29;100289.41;4356661;32;35214;-69
2022/12/31 05:01:39;;;;;;;;;;;;;;;10.35;58.90;100301.16;4358681;32;34326;-74
2022/12/31 05:04:07;;;;;;;;;;;;;;;10.33;58.77;100302.22;4353325;32;34503;-70
2022/12/31 05:06:34;;;;;;;;;;;;;;;10.01;60.02;100302.44;4357888;32;34192;-70
2022/12/31 05:09:02;;;;;;;;;;;;;;;10.18;59.49;100304.91;4358525;32;35178;-71
2022/12/31 05:11:29;;;;;;;;;;;;;;;10.02;59.59;100325.56;4360866;32;34430;-69
2022/12/31 05:13:56;;;;;;;;;;;;;;;10.12;59.77;100323.16;4359450;32;34280;-69
2022/12/31 05:16:24;;;;;;;;;;;;;;;10.23;59.58;100326.84;4360318;32;33673;-73
2022/12/31 05:18:51;;;;;;;;;;;;;;;10.11;59.88;100326.78;4359099;32;32882;-73
2022/12/31 05:21:19;;;;;;;;;;;;;;;10.23;59.48;100328.69;4360505;32;34148;-70
2022/12/31 05:23:47;;;;;;;;;;;;;;;9.92;60.66;100327.97;4358868;32;33130;-69
2022/12/31 05:26:14;;;;;;;;;;;;;;;10.20;59.28;100327.06;4360152;32;33370;-74
2022/12/31 05:28:42;;;;;;;;;;;;;;;9.86;60.51;100323.00;4358501;32;34312;-70
2022/12/31 05:31:09;;;;;;;;;;;;;;;9.91;60.61;100326.22;4361054;32;34134;-70
2022/12/31 05:33:36;;;;;;;;;;;;;;;10.02;60.58;100337.12;4358944;32;34641;-69
2022/12/31 05:36:04;;;;;;;;;;;;;;;10.11;60.29;100346.38;4360830;32;34134;-71
2022/12/31 05:38:31;;;;;;;;;;;;;;;10.08;60.25;100345.69;4361084;32;33765;-69
2022/12/31 05:41:03;;;;;;;;;;;;;;;10.54;58.86;100348.16;4361754;32;34222;-69
2022/12/31 05:43:30;;;;;;;;;;;;;;;9.98;60.09;100356.13;4360580;32;34343;-69
2022/12/31 05:46:01;;;;;;;;;;;;;;;10.54;58.88;100357.03;4363882;32;32231;-68
2022/12/31 05:48:29;;;;;;;;;;;;;;;10.45;59.03;100357.62;4365878;32;33199;-68
2022/12/31 05:50:56;;;;;;;;;;;;;;;10.71;57.62;100353.25;4365934;32;34525;-69
2022/12/31 05:53:23;;;;;;;;;;;;;;;10.81;58.02;100365.06;4366692;32;34766;-70
2022/12/31 05:55:50;;;;;;;;;;;;;;;10.58;58.09;100366.56;4363420;32;33672;-70
2022/12/31 05:58:18;;;;;;;;;;;;;;;10.87;57.88;100375.38;4364384;32;34100;-72
2022/12/31 06:00:45;;;;;;;;;;;;;;;10.68;57.88;100366.84;4362381;32;34477;-68
2022/12/31 06:03:13;;;;;;;;;;;;;;;10.75;57.87;100369.97;4363396;32;34547;-67
2022/12/31 06:05:41;;;;;;;;;;;;;;;11.27;56.08;100361.12;4363077;32;33275;-70
2022/12/31 06:08:09;;;;;;;;;;;;;;;11.19;56.58;100367.03;4363423;32;33025;-70
2022/12/31 06:10:37;;;;;;;;;;;;;;;11.17;56.51;100369.81;4363607;32;34033;-69
2022/12/31 06:13:04;;;;;;;;;;;;;;;11.25;56.19;100368.44;4364918;32;35089;-70
2022/12/31 06:15:38;;;;;;;;;;;;;;;11.34;55.97;100383.91;4364315;32;33500;-72
2022/12/31 06:18:06;;;;;;;;;;;;;;;11.39;55.85;100384.41;4366277;32;35260;-69
2022/12/31 06:20:35;;;;;;;;;;;;;;;11.41;55.67;100371.78;4364401;32;33157;-70
2022/12/31 06:23:02;;;;;;;;;;;;;;;11.41;55.66;100364.59;4357646;32;32993;-72
2022/12/31 06:25:30;;;;;;;;;;;;;;;11.06;56.86;100375.03;4356603;32;31625;-69
2022/12/31 06:27:57;;;;;;;;;;;;;;;11.46;55.56;100368.78;4362724;32;33008;-69
2022/12/31 06:30:24;;;;;;;;;;;;;;;11.58;55.28;100368.78;4350957;32;32702;-70
2022/12/31 06:32:53;;;;;;;;;;;;;;;11.54;55.16;100372.66;4364831;32;35455;-70
2022/12/31 06:35:20;;;;;;;;;;;;;;;11.52;54.88;100371.03;4363939;32;33122;-72
2022/12/31 06:37:48;;;;;;;;;;;;;;;11.49;54.75;100377.47;4365057;32;35210;-72
2022/12/31 06:40:16;;;;;;;;;;;;;;;11.77;52.82;100372.87;4348925;32;34437;-70
2022/12/31 06:42:43;;;;;;;;;;;;;;;11.66;53.07;100379.00;4364596;32;33878;-70
2022/12/31 06:45:10;;;;;;;;;;;;;;;11.51;54.10;100386.28;4361235;32;33523;-71
2022/12/31 06:47:38;;;;;;;;;;;;;;;11.61;53.84;100382.00;4365290;32;33021;-70
2022/12/31 06:50:05;;;;;;;;;;;;;;;11.76;53.18;100377.41;4364957;32;34266;-70
2022/12/31 06:52:33;;;;;;;;;;;;;;;11.81;53.05;100367.22;4361054;32;35542;-70
2022/12/31 06:55:00;;;;;;;;;;;;;;;11.85;52.57;100386.66;4361570;32;34835;-71
2022/12/31 06:57:28;;;;;;;;;;;;;;;11.55;53.78;100377.03;4347997;32;32965;-70
2022/12/31 06:59:55;;;;;;;;;;;;;;;11.60;53.73;100374.06;4360103;32;33940;-72
2022/12/31 07:02:34;;;;;;;;;;;;;;;11.66;53.39;100385.22;4357422;32;33062;-73
2022/12/31 07:05:40;;;;;;;;;;;;;;;11.51;53.96;100386.28;4348572;32;33661;-70
2022/12/31 07:08:20;;;;;;;;;;;;;;;11.55;53.93;100398.50;4305437;33;34205;-74
2022/12/31 07:11:08;;;;;;;;;;;;;;;11.64;53.49;100395.19;4306750;33;32579;-73
2022/12/31 07:13:41;;;;;;;;;;;;;;;11.69;53.24;100388.66;4333195;32;34309;-73
2022/12/31 07:16:11;;;;;;;;;;;;;;;11.52;53.89;100387.13;4360015;32;32366;-74
2022/12/31 07:18:42;;;;;;;;;;;;;;;11.66;53.55;100387.06;4362578;32;33709;-73
2022/12/31 07:21:13;;;;;;;;;;;;;;;11.86;52.83;100401.78;4360262;32;34238;-73
2022/12/31 07:23:41;;;;;;;;;;;;;;;11.81;52.99;100401.19;4361530;32;34436;-72
2022/12/31 07:26:20;;;;;;;;;;;;;;;11.75;53.23;100402.50;4362622;32;33243;-72
2022/12/31 07:28:51;;;;;;;;;;;;;;;11.50;53.98;100405.16;4347725;32;33760;-71
2022/12/31 07:31:24;;;;;;;;;;;;;;;11.58;53.74;100406.34;4361446;32;34458;-71
2022/12/31 07:34:03;;;;;;;;;;;;;;;11.52;53.97;100396.03;4361224;32;32808;-72
2022/12/31 07:36:36;;;;;;;;;;;;;;;11.08;55.99;100391.00;4355870;32;33418;-71
2022/12/31 07:39:12;;;;;;;;;;;;;;;11.16;55.83;100410.09;4360803;32;35320;-71
2022/12/31 07:41:39;;;;;;;;;;;;;;;11.15;55.72;100411.06;4360721;32;33950;-70
2022/12/31 07:44:22;;;;;;;;;;;;;;;10.82;57.02;100420.37;4360083;32;34451;-73
2022/12/31 07:46:54;;;;;;;;;;;;;;;11.02;56.25;100413.69;4348624;32;34432;-70
2022/12/31 07:49:22;;;;;;;;;;;;;;;10.67;57.31;100413.31;4361139;32;34257;-71
2022/12/31 07:51:49;;;;;;;;;;;;;;;10.78;57.44;100416.16;4360976;32;34050;-72
2022/12/31 07:54:16;;;;;;;;;;;;;;;10.65;57.67;100426.78;4360749;32;35310;-72
2022/12/31 07:56:44;;;;;;;;;;;;;;;10.49;58.21;100421.56;4360254;32;33621;-72
2022/12/31 07:59:26;;;;;;;;;;;;;;;9.94;60.15;100422.31;4361776;32;35138;-70
2022/12/31 08:01:58;;;;;;;;;;;;;;;10.28;59.42;100433.63;4355662;32;33090;-71
2022/12/31 08:04:28;;;;;;;;;;;;;;;9.99;60.06;100438.09;4358582;32;34538;-71
2022/12/31 08:06:55;;;;;;;;;;;;;;;9.43;62.15;100437.84;4361544;32;34386;-71
2022/12/31 08:09:24;;;;;;;;;;;;;;;9.33;62.76;100444.69;4360911;32;33859;-71
2022/12/31 08:11:56;;;;;;;;;;;;;;;10.35;59.80;100463.53;4358596;32;35510;-71
2022/12/31 08:14:24;;;;;;;;;;;;;;;10.95;57.64;100463.28;4342963;32;33470;-73
2022/12/31 08:16:52;;;;;;;;;;;;;;;10.21;59.91;100456.34;4356177;32;33953;-72
2022/12/31 08:19:24;;;;;;;;;;;;;;;10.10;60.24;100454.31;4360753;32;34392;-73
2022/12/31 08:21:54;;;;;;;;;;;;;;;10.93;57.56;100458.00;4352981;32;33802;-71
2022/12/31 08:24:22;;;;;;;;;;;;;;;10.94;57.58;100473.09;4369839;32;34244;-71
2022/12/31 08:26:55;;;;;;;;;;;;;;;10.99;57.41;100474.66;4348821;32;33125;-74
2022/12/31 08:29:23;;;;;;;;;;;;;;;11.22;56.88;100475.81;4360372;32;32839;-71
2022/12/31 08:31:59;;;;;;;;;;;;;;;10.89;57.28;100483.28;4359364;32;35431;-71
2022/12/31 08:34:26;;;;;;;;;;;;;;;11.22;56.69;100492.75;4362061;32;34478;-71
2022/12/31 08:36:53;;;;;;;;;;;;;;;11.48;55.96;100509.78;4360981;32;33469;-73
2022/12/31 08:39:39;;;;;;;;;;;;;;;11.75;55.10;100512.47;4361792;32;33488;-71
2022/12/31 08:42:21;;;;;;;;;;;;;;;11.63;55.60;100518.66;4362605;32;35263;-72
2022/12/31 08:45:02;;;;;;;;;;;;;;;11.79;55.15;100518.47;4361531;32;35047;-72
2022/12/31 08:47:32;;;;;;;;;;;;;;;11.97;54.45;100514.56;4347552;32;32334;-74
2022/12/31 08:50:05;;;;;;;;;;;;;;;11.93;54.74;100506.84;4358039;32;34566;-72
2022/12/31 08:52:32;;;;;;;;;;;;;;;12.01;54.65;100504.50;4347882;32;35361;-72
2022/12/31 08:55:00;;;;;;;;;;;;;;;12.04;54.69;100515.88;4360970;32;35495;-75
2022/12/31 08:57:33;;;;;;;;;;;;;;;12.29;53.98;100511.47;4360417;32;31799;-72
2022/12/31 09:00:04;;;;;;;;;;;;;;;12.35;53.71;100527.16;4360835;32;34143;-72
2022/12/31 09:02:50;;;;;;;;;;;;;;;12.21;54.29;100516.53;4356643;32;32750;-71
2022/12/31 09:05:20;;;;;;;;;;;;;;;11.85;54.99;100535.06;4358115;32;35242;-71
2022/12/31 09:08:06;;;;;;;;;;;;;;;12.21;54.20;100538.00;4358657;32;33458;-71
2022/12/31 09:10:37;;;;;;;;;;;;;;;12.29;54.05;100533.81;4357902;32;34382;-71
2022/12/31 09:13:05;;;;;;;;;;;;;;;12.44;53.51;100517.63;4358355;32;35011;-71
2022/12/31 09:15:37;;;;;;;;;;;;;;;12.50;53.18;100520.72;4359288;32;35129;-71
2022/12/31 09:18:06;;;;;;;;;;;;;;;12.42;53.68;100514.16;4345884;32;33168;-71
2022/12/31 09:20:33;;;;;;;;;;;;;;;12.34;53.73;100499.47;4354233;32;33900;-73
2022/12/31 09:23:11;;;;;;;;;;;;;;;12.41;53.78;100509.78;4360101;32;34261;-71
2022/12/31 09:25:45;;;;;;;;;;;;;;;12.16;54.29;100495.38;4358868;32;34136;-71
2022/12/31 09:28:18;;;;;;;;;;;;;;;12.53;52.85;100490.97;4348969;32;33620;-72
2022/12/31 09:30:51;;;;;;;;;;;;;;;12.67;52.66;100481.91;4356740;32;34272;-72
2022/12/31 09:33:25;;;;;;;;;;;;;;;12.72;52.53;100478.91;4361575;32;33748;-72
2022/12/31 09:36:05;;;;;;;;;;;;;;;12.56;53.00;100476.47;4360931;32;33454;-74
2022/12/31 09:38:37;;;;;;;;;;;;;;;12.59;53.03;100474.41;4360349;32;33100;-72
2022/12/31 09:41:07;;;;;;;;;;;;;;;12.43;53.33;100476.50;4348418;32;34262;-71
2022/12/31 09:43:54;;;;;;;;;;;;;;;12.42;53.51;100474.75;4359759;32;34618;-72
2022/12/31 09:46:27;;;;;;;;;;;;;;;12.73;52.57;100470.72;4352183;32;34243;-72
2022/12/31 09:49:14;;;;;;;;;;;;;;;12.77;52.47;100474.91;4359561;32;33346;-74
2022/12/31 09:52:00;;;;;;;;;;;;;;;12.69;53.08;100471.09;4360486;32;33160;-71
2022/12/31 09:54:46;;;;;;;;;;;;;;;12.70;53.16;100479.00;4360457;32;34285;-73
2022/12/31 09:57:13;;;;;;;;;;;;;;;12.64;53.13;100463.34;4343075;32;34412;-70
2022/12/31 09:59:43;;;;;;;;;;;;;;;12.74;52.90;100453.63;4354539;32;33172;-71
2022/12/31 10:02:11;;;;;;;;;;;;;;;12.63;53.07;100444.66;4359549;32;33308;-73
2022/12/31 10:04:43;;;;;;;;;;;;;;;12.68;53.10;100445.16;4359375;32;34503;-72
2022/12/31 10:07:13;;;;;;;;;;;;;;;12.79;52.79;100454.19;4349981;32;34149;-72
2022/12/31 10:10:00;;;;;;;;;;;;;;;12.86;52.75;100462.66;4360808;32;33304;-73
2022/12/31 10:12:37;;;;;;;;;;;;;;;12.95;52.60;100478.09;4338892;32;34712;-72
2022/12/31 10:15:04;;;;;;;;;;;;;;;12.94;52.76;100470.16;4353606;32;34371;-72
2022/12/31 10:17:40;;;;;;;;;;;;;;;13.10;52.01;100464.50;4353637;32;35274;-72
2022/12/31 10:20:09;;;;;;;;;;;;;;;13.18;52.04;100462.12;4351300;32;33301;-71
2022/12/31 10:22:45;;;;;;;;;;;;;;;13.17;52.51;100453.19;4358805;32;34008;-71
2022/12/31 10:25:16;;;;;;;;;;;;;;;13.24;52.29;100453.59;4356066;32;33116;-69
2022/12/31 10:28:02;;;;;;;;;;;;;;;13.28;52.28;100463.16;4357876;32;35435;-69
2022/12/31 10:30:31;;;;;;;;;;;;;;;13.27;52.52;100466.84;4356992;32;34572;-68
2022/12/31 10:33:04;;;;;;;;;;;;;;;13.14;53.23;100466.84;4351459;32;34792;-71
2022/12/31 10:35:35;;;;;;;;;;;;;;;13.20;53.32;100458.34;4359698;32;34338;-68
2022/12/31 10:38:21;;;;;;;;;;;;;;;12.48;55.24;100452.84;4360764;32;35831;-74
2022/12/31 10:41:08;;;;;;;;;;;;;;;13.11;54.00;100444.72;4338287;32;34001;-70
2022/12/31 10:43:38;;;;;;;;;;;;;;;13.08;53.81;100442.28;4361312;32;34124;-72
2022/12/31 10:46:11;;;;;;;;;;;;;;;13.03;54.03;100454.22;4360533;32;35505;-72
2022/12/31 10:49:05;;;;;;;;;;;;;;;13.38;52.90;100441.81;4362111;32;34212;-70
2022/12/31 10:51:32;;;;;;;;;;;;;;;13.47;52.76;100454.59;4349181;32;34334;-72
2022/12/31 10:54:06;;;;;;;;;;;;;;;13.63;52.10;100468.59;4358993;32;34403;-70
2022/12/31 10:56:39;;;;;;;;;;;;;;;13.40;52.92;100461.41;4359780;32;34243;-72
2022/12/31 10:59:13;;;;;;;;;;;;;;;13.39;52.74;100463.25;4357266;32;35903;-73
2022/12/31 11:01:47;;;;;;;;;;;;;;;13.38;52.79;100474.09;4354070;32;32169;-72
2022/12/31 11:04:34;;;;;;;;;;;;;;;13.48;52.97;100464.34;4358727;32;34025;-73
2022/12/31 11:07:08;;;;;;;;;;;;;;;13.34;53.21;100432.28;4340390;32;34395;-73
2022/12/31 11:09:45;;;;;;;;;;;;;;;13.10;53.64;100443.87;4360764;32;34492;-73
2022/12/31 11:12:31;;;;;;;;;;;;;;;13.34;53.20;100451.09;4346067;32;33541;-74
2022/12/31 11:15:01;;;;;;;;;;;;;;;13.13;53.41;100446.34;4358132;32;35219;-73
2022/12/31 11:17:38;;;;;;;;;;;;;;;12.78;54.51;100449.78;4360450;32;32993;-71
2022/12/31 11:20:10;;;;;;;;;;;;;;;13.17;54.00;100439.75;4356644;32;33545;-71
2022/12/31 11:22:43;;;;;;;;;;;;;;;12.75;54.83;100438.41;4364089;32;32561;-73
2022/12/31 11:25:11;;;;;;;;;;;;;;;13.41;53.21;100430.84;4359521;32;34365;-70
2022/12/31 11:27:57;;;;;;;;;;;;;;;13.55;53.05;100427.97;4359812;32;34569;-72
2022/12/31 11:30:44;;;;;;;;;;;;;;;13.27;53.31;100418.44;4360748;32;35090;-71
2022/12/31 11:33:30;;;;;;;;;;;;;;;13.67;52.37;100427.00;4361454;32;33071;-69
2022/12/31 11:36:08;;;;;;;;;;;;;;;13.57;52.83;100438.59;4357095;32;33074;-69
2022/12/31 11:38:50;;;;;;;;;;;;;;;13.80;52.40;100420.69;4343969;32;34077;-72
2022/12/31 11:41:17;;;;;;;;;;;;;;;13.93;51.92;100418.75;4361417;32;34371;-67
2022/12/31 11:43:48;;;;;;;;;;;;;;;13.89;52.08;100410.06;4357817;32;32378;-68
2022/12/31 11:46:19;;;;;;;;;;;;;;;13.48;53.11;100407.88;4357813;32;33754;-69
2022/12/31 11:48:50;;;;;;;;;;;;;;;13.55;52.85;100401.09;4358080;32;34213;-72
2022/12/31 11:51:32;;;;;;;;;;;;;;;13.95;52.25;100400.66;4361334;32;34183;-68
2022/12/31 11:54:19;;;;;;;;;;;;;;;13.79;52.36;100392.94;4361373;32;33243;-69
2022/12/31 11:56:50;;;;;;;;;;;;;;;13.83;52.57;100407.00;4357737;32;34343;-71
2022/12/31 11:59:17;;;;;;;;;;;;;;;13.34;53.78;100425.06;4344099;32;33961;-71
2022/12/31 12:02:15;;;;;;;;;;;;;;;13.52;53.20;100430.91;4356209;32;34350;-73
2022/12/31 12:04:43;;;;;;;;;;;;;;;13.84;52.56;100438.34;4317576;32;33842;-71
2022/12/31 12:07:13;;;;;;;;;;;;;;;13.84;52.97;100439.19;4346337;32;34110;-72
2022/12/31 12:09:41;;;;;;;;;;;;;;;12.78;55.20;100444.41;4347200;32;34360;-72
2022/12/31 12:12:08;;;;;;;;;;;;;;;13.56;53.33;100443.13;4359244;32;34048;-72
2022/12/31 12:14:36;;;;;;;;;;;;;;;13.61;53.37;100449.03;4346878;32;33242;-72
2022/12/31 12:17:08;;;;;;;;;;;;;;;13.56;53.87;100442.28;4344765;32;35747;-71
2022/12/31 12:19:40;;;;;;;;;;;;;;;13.90;52.94;100435.12;4353946;32;34479;-70
2022/12/31 12:22:08;;;;;;;;;;;;;;;13.90;53.23;100430.63;4357799;32;34459;-71
2022/12/31 12:24:36;;;;;;;;;;;;;;;13.81;53.28;100434.03;4362531;32;33511;-70
2022/12/31 12:27:03;;;;;;;;;;;;;;;14.22;52.63;100438.00;4357371;32;35662;-71
2022/12/31 12:29:33;;;;;;;;;;;;;;;14.28;52.51;100426.75;4343655;32;33816;-69
2022/12/31 12:32:03;;;;;;;;;;;;;;;14.46;52.24;100427.13;4359455;32;34649;-71
2022/12/31 12:34:34;;;;;;;;;;;;;;;12.49;57.20;100442.97;4361524;32;34321;-68
2022/12/31 12:37:02;;;;;;;;;;;;;;;14.11;53.33;100428.09;4358224;32;34303;-67
2022/12/31 12:39:30;;;;;;;;;;;;;;;13.79;54.17;100422.53;4359927;32;34092;-70
2022/12/31 12:42:09;;;;;;;;;;;;;;;13.99;53.48;100429.91;4359074;32;34133;-69
2022/12/31 12:44:36;;;;;;;;;;;;;;;14.38;52.72;100433.13;4360419;32;33425;-69
2022/12/31 12:47:04;;;;;;;;;;;;;;;14.34;52.66;100420.88;4360718;32;33794;-69
2022/12/31 12:49:36;;;;;;;;;;;;;;;14.12;53.47;100424.41;4341824;32;34019;-70
2022/12/31 12:52:03;;;;;;;;;;;;;;;14.44;52.61;100418.31;4344100;32;33575;-68
2022/12/31 12:54:36;;;;;;;;;;;;;;;14.46;52.60;100413.66;4357404;32;33587;-67
2022/12/31 12:57:09;;;;;;;;;;;;;;;13.64;54.98;100424.59;4357585;32;34098;-72
2022/12/31 12:59:41;;;;;;;;;;;;;;;14.34;53.04;100409.25;4356065;32;34213;-70
2022/12/31 13:02:15;;;;;;;;;;;;;;;14.19;53.26;100417.59;4344967;32;33141;-70
2022/12/31 13:04:42;;;;;;;;;;;;;;;14.15;53.21;100421.47;4354648;32;33978;-71